Time;durP1;ratioP1;P1;durP2;ratioP2;P2;SDS_P1;SDS_P2;PMS_P1;PMS_P2;Temp;Humidity;BMP_temperature;BMP_pressure;BME280_temperature;BME280_humidity;BME280_pressure;Samples;Min_cycle;Max_cycle;Signal;HPM_P1;HPM_P2
2022/10/25 00:01:25;;;;;;;;;;;11.50;99.90;;;;;;5045068;28;19925;-68
2022/10/25 00:03:51;;;;;;;;;;;11.40;99.90;;;;;;5043828;28;20271;-68
2022/10/25 00:06:17;;;;;;;;;;;11.40;99.90;;;;;;5043278;28;19921;-68
2022/10/25 00:08:42;;;;;;;;;;;11.40;99.90;;;;;;5034724;28;20047;-68
2022/10/25 00:11:10;;;;;;;;;;;11.40;99.90;;;;;;5015716;28;19925;-68
2022/10/25 00:13:35;;;;;;;;;;;11.40;99.90;;;;;;5052435;28;19939;-68
2022/10/25 00:16:01;;;;;;;;;;;11.40;99.90;;;;;;5043815;28;19924;-68
2022/10/25 00:18:26;;;;;;;;;;;11.40;99.90;;;;;;5029393;28;19968;-68
2022/10/25 00:20:52;;;;;;;;;;;11.40;99.90;;;;;;5015912;28;19925;-68
2022/10/25 00:23:17;;;;;;;;;;;11.40;99.90;;;;;;5031685;28;19990;-68
2022/10/25 00:25:43;;;;;;;;;;;11.40;99.90;;;;;;5042026;28;20015;-68
2022/10/25 00:28:09;;;;;;;;;;;11.40;99.90;;;;;;5053034;28;19920;-68
2022/10/25 00:30:34;;;;;;;;;;;11.40;99.90;;;;;;5052473;28;19947;-68
2022/10/25 00:33:00;;;;;;;;;;;11.40;99.90;;;;;;5045391;28;19970;-68
2022/10/25 00:35:25;;;;;;;;;;;11.50;99.90;;;;;;5040938;28;20349;-68
2022/10/25 00:37:51;;;;;;;;;;;11.60;99.90;;;;;;5052225;28;20318;-68
2022/10/25 00:40:17;;;;;;;;;;;11.60;99.90;;;;;;5031508;28;19921;-68
2022/10/25 00:42:43;;;;;;;;;;;11.70;99.90;;;;;;5033247;28;19935;-68
2022/10/25 00:45:22;;;;;;;;;;;11.70;99.90;;;;;;5032749;28;20534;-68
2022/10/25 00:47:53;;;;;;;;;;;11.70;99.90;;;;;;5043970;28;19921;-68
2022/10/25 00:50:19;;;;;;;;;;;11.80;99.90;;;;;;5034898;28;19925;-68
2022/10/25 00:52:45;;;;;;;;;;;11.80;99.90;;;;;;5037898;28;19931;-68
2022/10/25 00:55:13;;;;;;;;;;;11.80;99.90;;;;;;5052361;28;20349;-68
2022/10/25 00:57:44;;;;;;;;;;;11.90;99.90;;;;;;5052802;28;19927;-68
2022/10/25 01:00:10;;;;;;;;;;;11.90;99.90;;;;;;5050195;28;19929;-68
2022/10/25 01:02:35;;;;;;;;;;;12.00;99.90;;;;;;5049449;28;19925;-68
2022/10/25 01:05:01;;;;;;;;;;;12.10;99.90;;;;;;5044570;28;19959;-68
2022/10/25 01:07:26;;;;;;;;;;;12.10;99.90;;;;;;5048166;28;19956;-68
2022/10/25 01:09:52;;;;;;;;;;;12.20;99.90;;;;;;5037825;28;19999;-68
2022/10/25 01:12:17;;;;;;;;;;;12.20;99.90;;;;;;5034848;28;19921;-68
2022/10/25 01:14:47;;;;;;;;;;;12.30;99.90;;;;;;5046983;28;19929;-68
2022/10/25 01:17:25;;;;;;;;;;;12.30;99.90;;;;;;5048832;28;19921;-68
2022/10/25 01:19:56;;;;;;;;;;;12.30;99.90;;;;;;5052034;28;19924;-68
2022/10/25 01:22:28;;;;;;;;;;;12.30;99.90;;;;;;5045984;28;19927;-68
2022/10/25 01:25:06;;;;;;;;;;;12.30;99.90;;;;;;5043810;28;19920;-68
2022/10/25 01:27:31;;;;;;;;;;;12.30;99.90;;;;;;5050307;28;20318;-68
2022/10/25 01:30:03;;;;;;;;;;;12.20;99.90;;;;;;5048719;28;20028;-68
2022/10/25 01:32:39;;;;;;;;;;;12.30;99.90;;;;;;5045681;28;20027;-68
2022/10/25 01:35:19;;;;;;;;;;;12.30;99.90;;;;;;5043935;28;19928;-68
2022/10/25 01:38:03;;;;;;;;;;;12.30;99.90;;;;;;5033625;28;19925;-68
2022/10/25 01:40:43;;;;;;;;;;;12.30;99.90;;;;;;5050915;28;19921;-68
2022/10/25 01:43:21;;;;;;;;;;;12.30;99.90;;;;;;5047864;28;20055;-68
2022/10/25 01:46:10;;;;;;;;;;;12.40;99.90;;;;;;5051371;28;19920;-68
2022/10/25 01:48:38;;;;;;;;;;;12.40;99.90;;;;;;5043867;28;19928;-68
2022/10/25 01:51:11;;;;;;;;;;;12.40;99.90;;;;;;5047216;28;19924;-68
2022/10/25 01:53:43;;;;;;;;;;;12.40;99.90;;;;;;5022553;28;19929;-68
2022/10/25 01:56:10;;;;;;;;;;;12.50;99.90;;;;;;5025143;28;19928;-68
2022/10/25 01:58:35;;;;;;;;;;;12.50;99.90;;;;;;5043688;28;19925;-68
2022/10/25 02:01:16;;;;;;;;;;;12.50;99.90;;;;;;5046661;28;19920;-68
2022/10/25 02:03:45;;;;;;;;;;;12.50;99.90;;;;;;5031022;28;19925;-68
2022/10/25 02:06:23;;;;;;;;;;;12.60;99.90;;;;;;5043546;28;19921;-68
2022/10/25 02:08:52;;;;;;;;;;;12.60;99.90;;;;;;5043310;28;20011;-68
2022/10/25 02:11:26;;;;;;;;;;;12.60;99.90;;;;;;5043208;28;20291;-68
2022/10/25 02:13:57;;;;;;;;;;;12.60;99.90;;;;;;5040836;28;21324;-68
2022/10/25 02:16:24;;;;;;;;;;;12.60;99.90;;;;;;5042228;28;19925;-68
2022/10/25 02:18:52;;;;;;;;;;;12.60;99.90;;;;;;5026569;28;20058;-68
2022/10/25 02:21:18;;;;;;;;;;;12.60;99.90;;;;;;5051297;28;19920;-68
2022/10/25 02:23:45;;;;;;;;;;;12.50;99.90;;;;;;5054066;28;20730;-68
2022/10/25 02:26:11;;;;;;;;;;;12.60;99.90;;;;;;5055465;28;20043;-68
2022/10/25 02:28:38;;;;;;;;;;;12.60;99.90;;;;;;5048042;28;19936;-68
2022/10/25 02:31:06;;;;;;;;;;;12.60;99.90;;;;;;5041176;28;20274;-68
2022/10/25 02:33:32;;;;;;;;;;;12.50;99.90;;;;;;5044202;28;19929;-68
2022/10/25 02:36:14;;;;;;;;;;;12.60;99.90;;;;;;5047572;28;19928;-68
2022/10/25 02:38:40;;;;;;;;;;;12.60;99.90;;;;;;5038479;28;19975;-68
2022/10/25 02:41:05;;;;;;;;;;;12.60;99.90;;;;;;5053352;28;19963;-68
2022/10/25 02:43:31;;;;;;;;;;;12.60;99.90;;;;;;5019613;28;19921;-68
2022/10/25 02:45:57;;;;;;;;;;;12.60;99.90;;;;;;5046554;28;19960;-68
2022/10/25 02:48:22;;;;;;;;;;;12.60;99.90;;;;;;5039873;28;20689;-68
2022/10/25 02:50:48;;;;;;;;;;;12.60;99.90;;;;;;5047024;28;19970;-68
2022/10/25 02:53:13;;;;;;;;;;;12.60;99.90;;;;;;5044444;28;19974;-68
2022/10/25 02:55:39;;;;;;;;;;;12.60;99.90;;;;;;5052134;28;19921;-68
2022/10/25 02:58:04;;;;;;;;;;;12.60;99.90;;;;;;5039597;28;19925;-68
2022/10/25 03:00:30;;;;;;;;;;;12.70;99.90;;;;;;5052214;28;19921;-68
2022/10/25 03:02:55;;;;;;;;;;;12.80;99.90;;;;;;5052687;28;19924;-68
2022/10/25 03:05:21;;;;;;;;;;;12.80;99.90;;;;;;5045099;28;19928;-69
2022/10/25 03:07:46;;;;;;;;;;;12.80;99.90;;;;;;5053679;28;20007;-68
2022/10/25 03:10:11;;;;;;;;;;;12.70;99.90;;;;;;5052804;28;19925;-68
2022/10/25 03:12:37;;;;;;;;;;;12.70;99.90;;;;;;5052230;28;19929;-68
2022/10/25 03:15:03;;;;;;;;;;;12.70;99.90;;;;;;5038451;28;20400;-68
2022/10/25 03:17:28;;;;;;;;;;;12.70;99.90;;;;;;5031796;28;19935;-68
2022/10/25 03:19:54;;;;;;;;;;;12.70;99.90;;;;;;5048183;28;19938;-68
2022/10/25 03:22:19;;;;;;;;;;;12.70;99.90;;;;;;5052508;28;19924;-68
2022/10/25 03:24:44;;;;;;;;;;;12.60;99.90;;;;;;5045013;28;20000;-68
2022/10/25 03:27:10;;;;;;;;;;;12.70;99.90;;;;;;5050508;28;19943;-68
2022/10/25 03:29:35;;;;;;;;;;;12.60;99.90;;;;;;5046357;28;19921;-68
2022/10/25 03:32:02;;;;;;;;;;;12.60;99.90;;;;;;5049235;28;19932;-68
2022/10/25 03:34:27;;;;;;;;;;;12.50;99.90;;;;;;5050220;28;19928;-68
2022/10/25 03:36:53;;;;;;;;;;;12.50;99.90;;;;;;5048347;28;20259;-68
2022/10/25 03:39:18;;;;;;;;;;;12.50;99.90;;;;;;5045208;28;20004;-68
2022/10/25 03:41:44;;;;;;;;;;;12.40;99.90;;;;;;5049597;28;20471;-68
2022/10/25 03:44:09;;;;;;;;;;;12.40;99.90;;;;;;5047871;28;19921;-68
2022/10/25 03:46:35;;;;;;;;;;;12.40;99.90;;;;;;5052509;28;19929;-68
2022/10/25 03:49:00;;;;;;;;;;;12.30;99.90;;;;;;5053974;28;19925;-68
2022/10/25 03:51:26;;;;;;;;;;;12.30;99.90;;;;;;5050688;28;19932;-68
2022/10/25 03:53:51;;;;;;;;;;;12.30;99.90;;;;;;5046026;28;19936;-68
2022/10/25 03:56:17;;;;;;;;;;;12.40;99.90;;;;;;5049026;28;19924;-68
2022/10/25 03:58:42;;;;;;;;;;;12.30;99.90;;;;;;5023478;28;19929;-68
2022/10/25 04:01:08;;;;;;;;;;;12.30;99.90;;;;;;5039488;28;20427;-68
2022/10/25 04:03:34;;;;;;;;;;;12.30;99.90;;;;;;5017175;28;19938;-68
2022/10/25 04:05:59;;;;;;;;;;;12.30;99.90;;;;;;5046442;28;19996;-68
2022/10/25 04:08:25;;;;;;;;;;;12.30;99.90;;;;;;5051679;28;20055;-68
2022/10/25 04:10:50;;;;;;;;;;;12.30;99.90;;;;;;5046952;28;19971;-68
2022/10/25 04:13:16;;;;;;;;;;;12.30;99.90;;;;;;5032732;28;19933;-68
2022/10/25 04:15:41;;;;;;;;;;;12.20;99.90;;;;;;5037426;28;19921;-68
2022/10/25 04:18:07;;;;;;;;;;;12.20;99.90;;;;;;5052428;28;19920;-68
2022/10/25 04:20:32;;;;;;;;;;;12.20;99.90;;;;;;5051850;28;19932;-68
2022/10/25 04:22:58;;;;;;;;;;;12.20;99.90;;;;;;5053248;28;19927;-68
2022/10/25 04:25:24;;;;;;;;;;;12.20;99.90;;;;;;5046344;28;19927;-68
2022/10/25 04:27:50;;;;;;;;;;;12.10;99.90;;;;;;5044890;28;19971;-68
2022/10/25 04:30:15;;;;;;;;;;;12.10;99.90;;;;;;5050898;28;19921;-68
2022/10/25 04:32:41;;;;;;;;;;;12.10;99.90;;;;;;5052676;28;19964;-68
2022/10/25 04:35:06;;;;;;;;;;;12.10;99.90;;;;;;5041432;28;19925;-68
2022/10/25 04:37:32;;;;;;;;;;;12.10;99.90;;;;;;5031466;28;20002;-68
2022/10/25 04:39:57;;;;;;;;;;;12.10;99.90;;;;;;5045154;28;20646;-68
2022/10/25 04:42:23;;;;;;;;;;;12.10;99.90;;;;;;5035859;28;19956;-68
2022/10/25 04:44:48;;;;;;;;;;;12.20;99.90;;;;;;5035120;28;19928;-68
2022/10/25 04:47:13;;;;;;;;;;;12.10;99.90;;;;;;5041774;28;20366;-68
2022/10/25 04:49:39;;;;;;;;;;;12.10;99.90;;;;;;5033276;28;19920;-68
2022/10/25 04:52:04;;;;;;;;;;;12.20;99.90;;;;;;5049106;28;19924;-68
2022/10/25 04:54:30;;;;;;;;;;;12.10;99.90;;;;;;5044883;28;20328;-68
2022/10/25 04:56:55;;;;;;;;;;;12.20;99.90;;;;;;5045444;28;19921;-68
2022/10/25 04:59:21;;;;;;;;;;;12.20;99.90;;;;;;5051390;28;19974;-68
2022/10/25 05:01:46;;;;;;;;;;;12.20;99.90;;;;;;5050885;28;19920;-68
2022/10/25 05:04:12;;;;;;;;;;;12.20;99.90;;;;;;5040572;28;19921;-68
2022/10/25 05:06:37;;;;;;;;;;;12.20;99.90;;;;;;5041093;28;19925;-68
2022/10/25 05:09:03;;;;;;;;;;;12.20;99.90;;;;;;5051459;28;19929;-68
2022/10/25 05:11:28;;;;;;;;;;;12.10;99.90;;;;;;5049796;28;20271;-68
2022/10/25 05:13:54;;;;;;;;;;;12.10;99.90;;;;;;5041436;28;19934;-68
2022/10/25 05:16:22;;;;;;;;;;;12.10;99.90;;;;;;5041175;28;20302;-68
2022/10/25 05:18:48;;;;;;;;;;;12.00;99.90;;;;;;5050787;28;19932;-69
2022/10/25 05:21:14;;;;;;;;;;;12.00;99.90;;;;;;5040186;28;19932;-69
2022/10/25 05:23:40;;;;;;;;;;;12.00;99.90;;;;;;5049996;28;19921;-69
2022/10/25 05:26:07;;;;;;;;;;;12.00;99.90;;;;;;5044132;28;19970;-69
2022/10/25 05:28:33;;;;;;;;;;;11.90;99.90;;;;;;5019099;28;19925;-69
2022/10/25 05:31:10;;;;;;;;;;;12.00;99.90;;;;;;5001034;28;19925;-68
2022/10/25 05:33:36;;;;;;;;;;;12.00;99.90;;;;;;5018555;28;20603;-69
2022/10/25 05:36:02;;;;;;;;;;;12.00;99.90;;;;;;5042613;28;19921;-69
2022/10/25 05:38:28;;;;;;;;;;;12.00;99.90;;;;;;5025467;28;19928;-69
2022/10/25 05:40:57;;;;;;;;;;;12.00;99.90;;;;;;5046729;28;19929;-69
2022/10/25 05:43:23;;;;;;;;;;;12.00;99.90;;;;;;5046730;28;19982;-69
2022/10/25 05:45:49;;;;;;;;;;;11.90;99.90;;;;;;5038904;28;19928;-69
2022/10/25 05:48:15;;;;;;;;;;;11.90;99.90;;;;;;5046792;28;19921;-69
2022/10/25 05:50:40;;;;;;;;;;;11.90;99.90;;;;;;5047916;28;19928;-69
2022/10/25 05:53:06;;;;;;;;;;;11.90;99.90;;;;;;5043415;28;19972;-68
2022/10/25 05:55:32;;;;;;;;;;;11.90;99.90;;;;;;5046837;28;19925;-68
2022/10/25 05:57:58;;;;;;;;;;;12.00;99.90;;;;;;5049331;28;19920;-69
2022/10/25 06:00:24;;;;;;;;;;;12.00;99.90;;;;;;5035635;28;19925;-69
2022/10/25 06:02:49;;;;;;;;;;;12.00;99.90;;;;;;5038224;28;19932;-69
2022/10/25 06:05:14;;;;;;;;;;;12.00;99.90;;;;;;5046531;28;19925;-69
2022/10/25 06:07:40;;;;;;;;;;;12.00;99.90;;;;;;5040098;28;20494;-68
2022/10/25 06:10:06;;;;;;;;;;;12.00;99.90;;;;;;5049385;28;19943;-68
2022/10/25 06:12:31;;;;;;;;;;;12.00;99.90;;;;;;5049995;28;19921;-68
2022/10/25 06:14:56;;;;;;;;;;;12.00;99.90;;;;;;5043277;28;19929;-68
2022/10/25 06:17:22;;;;;;;;;;;12.00;99.90;;;;;;5043850;28;19952;-68
2022/10/25 06:19:47;;;;;;;;;;;12.00;99.90;;;;;;5050042;28;20028;-68
2022/10/25 06:22:13;;;;;;;;;;;12.00;99.90;;;;;;5049623;28;19924;-68
2022/10/25 06:24:38;;;;;;;;;;;12.00;99.90;;;;;;5046327;28;19932;-68
2022/10/25 06:27:04;;;;;;;;;;;12.00;99.90;;;;;;5035093;28;20425;-68
2022/10/25 06:29:29;;;;;;;;;;;12.00;99.90;;;;;;5044423;28;19971;-68
2022/10/25 06:31:55;;;;;;;;;;;12.00;99.90;;;;;;5027446;28;19921;-68
2022/10/25 06:34:20;;;;;;;;;;;12.00;99.90;;;;;;5037232;28;19964;-68
2022/10/25 06:36:46;;;;;;;;;;;12.00;99.90;;;;;;5038111;28;19929;-68
2022/10/25 06:39:11;;;;;;;;;;;12.00;99.90;;;;;;5030351;28;19920;-68
2022/10/25 06:41:37;;;;;;;;;;;12.00;99.90;;;;;;5040055;28;19921;-68
2022/10/25 06:44:02;;;;;;;;;;;12.00;99.90;;;;;;5043687;28;20341;-68
2022/10/25 06:46:29;;;;;;;;;;;12.00;99.90;;;;;;5038467;28;19928;-68
2022/10/25 06:48:55;;;;;;;;;;;12.00;99.90;;;;;;5039126;28;19927;-68
2022/10/25 06:51:21;;;;;;;;;;;12.00;99.90;;;;;;5013665;28;19975;-68
2022/10/25 06:53:52;;;;;;;;;;;12.10;99.90;;;;;;5020465;28;19935;-68
2022/10/25 06:56:17;;;;;;;;;;;12.10;99.90;;;;;;5046813;28;19992;-68
2022/10/25 06:58:43;;;;;;;;;;;12.20;99.90;;;;;;5041140;28;19974;-68
2022/10/25 07:01:10;;;;;;;;;;;12.30;99.90;;;;;;5035261;28;20442;-68
2022/10/25 07:03:35;;;;;;;;;;;12.30;99.90;;;;;;5042275;28;19925;-68
2022/10/25 07:06:04;;;;;;;;;;;12.20;99.90;;;;;;5044452;28;20375;-68
2022/10/25 07:08:29;;;;;;;;;;;12.30;99.90;;;;;;5019991;28;20387;-68
2022/10/25 07:10:55;;;;;;;;;;;12.30;99.90;;;;;;5049542;28;19940;-68
2022/10/25 07:13:21;;;;;;;;;;;12.40;99.90;;;;;;5046445;28;19963;-68
2022/10/25 07:15:46;;;;;;;;;;;12.40;99.90;;;;;;5042310;28;20387;-68
2022/10/25 07:18:12;;;;;;;;;;;12.50;99.90;;;;;;5049810;28;19924;-68
2022/10/25 07:20:37;;;;;;;;;;;12.40;99.90;;;;;;5045374;28;19921;-68
2022/10/25 07:23:03;;;;;;;;;;;12.60;99.90;;;;;;5035385;28;19978;-69
2022/10/25 07:25:29;;;;;;;;;;;12.60;99.90;;;;;;5043502;28;19921;-69
2022/10/25 07:27:55;;;;;;;;;;;12.70;99.90;;;;;;5042245;28;19947;-69
2022/10/25 07:30:21;;;;;;;;;;;12.70;99.90;;;;;;5035462;28;21353;-68
2022/10/25 07:32:46;;;;;;;;;;;12.70;99.90;;;;;;5045418;28;19974;-68
2022/10/25 07:35:11;;;;;;;;;;;12.80;99.90;;;;;;5055007;28;19921;-68
2022/10/25 07:37:37;;;;;;;;;;;12.80;99.90;;;;;;5051822;28;20608;-68
2022/10/25 07:40:03;;;;;;;;;;;12.90;99.90;;;;;;5052681;28;19935;-68
2022/10/25 07:42:28;;;;;;;;;;;12.90;99.90;;;;;;5046771;28;20310;-68
2022/10/25 07:44:54;;;;;;;;;;;13.00;99.90;;;;;;5044055;28;19921;-68
2022/10/25 07:47:19;;;;;;;;;;;13.10;99.90;;;;;;5051253;28;20378;-68
2022/10/25 07:49:44;;;;;;;;;;;13.10;99.90;;;;;;5048255;28;19921;-68
2022/10/25 07:52:10;;;;;;;;;;;13.20;99.90;;;;;;5045846;28;20367;-68
2022/10/25 07:54:35;;;;;;;;;;;13.30;99.90;;;;;;5053835;28;19959;-68
2022/10/25 07:57:01;;;;;;;;;;;13.40;99.90;;;;;;5037651;28;19929;-68
2022/10/25 07:59:26;;;;;;;;;;;13.50;99.90;;;;;;5021410;28;19921;-68
2022/10/25 08:01:52;;;;;;;;;;;13.60;99.90;;;;;;5045763;28;19956;-68
2022/10/25 08:04:17;;;;;;;;;;;13.70;99.90;;;;;;5045298;28;19925;-68
2022/10/25 08:06:43;;;;;;;;;;;13.70;99.90;;;;;;5025492;28;19928;-68
2022/10/25 08:09:08;;;;;;;;;;;13.70;99.90;;;;;;5047397;28;20417;-68
2022/10/25 08:11:34;;;;;;;;;;;13.70;99.90;;;;;;5055005;28;19975;-68
2022/10/25 08:13:59;;;;;;;;;;;13.80;99.90;;;;;;5039404;28;19925;-68
2022/10/25 08:16:25;;;;;;;;;;;13.80;99.90;;;;;;5042403;28;19933;-68
2022/10/25 08:18:50;;;;;;;;;;;13.70;99.90;;;;;;5033597;28;19921;-68
2022/10/25 08:21:16;;;;;;;;;;;13.70;99.90;;;;;;5046716;28;20010;-68
2022/10/25 08:23:41;;;;;;;;;;;13.80;99.90;;;;;;5042565;28;19979;-68
2022/10/25 08:26:07;;;;;;;;;;;14.00;99.90;;;;;;5043028;28;20002;-69
2022/10/25 08:28:32;;;;;;;;;;;14.10;99.90;;;;;;5049466;28;20018;-68
2022/10/25 08:30:59;;;;;;;;;;;14.20;99.90;;;;;;5043669;28;19921;-68
2022/10/25 08:33:25;;;;;;;;;;;14.20;99.90;;;;;;5047307;28;19980;-68
2022/10/25 08:35:50;;;;;;;;;;;14.30;99.90;;;;;;5047109;28;19976;-67
2022/10/25 08:38:16;;;;;;;;;;;14.30;99.90;;;;;;5046383;28;19924;-67
2022/10/25 08:40:44;;;;;;;;;;;14.40;99.90;;;;;;5048798;28;19928;-68
2022/10/25 08:43:21;;;;;;;;;;;14.40;99.90;;;;;;5037849;28;19982;-68
2022/10/25 08:45:53;;;;;;;;;;;14.50;99.90;;;;;;5039893;28;20352;-68
2022/10/25 08:48:21;;;;;;;;;;;14.50;99.90;;;;;;5046295;28;19963;-68
2022/10/25 08:50:49;;;;;;;;;;;14.50;99.90;;;;;;5045251;28;20363;-68
2022/10/25 08:53:26;;;;;;;;;;;14.50;99.90;;;;;;5047677;28;19932;-68
2022/10/25 08:55:53;;;;;;;;;;;14.50;99.90;;;;;;5047301;28;19931;-68
2022/10/25 08:58:33;;;;;;;;;;;14.50;99.90;;;;;;5024457;28;19935;-68
2022/10/25 09:01:01;;;;;;;;;;;14.50;99.90;;;;;;5049321;28;19924;-68
2022/10/25 09:03:26;;;;;;;;;;;14.40;99.90;;;;;;5043365;28;19944;-68
2022/10/25 09:05:52;;;;;;;;;;;14.40;99.90;;;;;;5045903;28;20550;-68
2022/10/25 09:08:29;;;;;;;;;;;14.50;99.90;;;;;;5038897;22;19933;-68
2022/10/25 09:11:01;;;;;;;;;;;14.50;99.90;;;;;;5045967;28;20400;-67
2022/10/25 09:13:49;;;;;;;;;;;14.70;99.90;;;;;;5021954;28;19949;-68
2022/10/25 09:16:20;;;;;;;;;;;14.70;99.90;;;;;;5026800;28;19947;-68
2022/10/25 09:18:46;;;;;;;;;;;14.70;99.90;;;;;;5037293;28;20436;-67
2022/10/25 09:21:20;;;;;;;;;;;14.70;99.90;;;;;;5030366;28;19964;-67
2022/10/25 09:23:53;;;;;;;;;;;14.80;99.90;;;;;;5026141;28;19935;-68
2022/10/25 09:26:33;;;;;;;;;;;14.90;99.90;;;;;;5026807;28;19940;-68
2022/10/25 09:29:05;;;;;;;;;;;15.00;99.90;;;;;;5033731;28;20409;-67
2022/10/25 09:31:35;;;;;;;;;;;15.10;99.90;;;;;;5029694;28;19970;-68
2022/10/25 09:34:02;;;;;;;;;;;15.30;99.90;;;;;;5023627;28;19975;-68
2022/10/25 09:36:29;;;;;;;;;;;15.30;99.90;;;;;;5017911;28;19921;-68
2022/10/25 09:38:57;;;;;;;;;;;15.40;99.90;;;;;;5036415;28;19987;-68
2022/10/25 09:41:25;;;;;;;;;;;15.40;99.90;;;;;;5039634;28;19925;-67
2022/10/25 09:43:56;;;;;;;;;;;15.40;99.90;;;;;;5023324;28;19926;-68
2022/10/25 09:46:24;;;;;;;;;;;15.60;99.90;;;;;;5032216;28;19925;-68
2022/10/25 09:48:53;;;;;;;;;;;15.60;99.90;;;;;;5024268;28;19986;-67
2022/10/25 09:51:32;;;;;;;;;;;15.60;99.90;;;;;;5025169;28;19936;-68
2022/10/25 09:53:59;;;;;;;;;;;15.50;99.90;;;;;;5026951;28;19925;-68
2022/10/25 09:56:24;;;;;;;;;;;15.50;99.90;;;;;;5024663;28;20991;-67
2022/10/25 09:58:50;;;;;;;;;;;15.50;99.90;;;;;;5028356;28;19928;-67
2022/10/25 10:01:18;;;;;;;;;;;15.40;99.90;;;;;;5020793;28;19922;-68
2022/10/25 10:03:43;;;;;;;;;;;15.30;99.90;;;;;;5019775;28;19970;-68
2022/10/25 10:06:15;;;;;;;;;;;15.20;99.90;;;;;;5023232;28;20353;-67
2022/10/25 10:08:42;;;;;;;;;;;15.30;99.90;;;;;;5024918;28;19937;-67
2022/10/25 10:11:13;;;;;;;;;;;15.20;99.90;;;;;;5017952;28;19956;-67
2022/10/25 10:13:41;;;;;;;;;;;15.20;99.90;;;;;;5024609;28;19961;-67
2022/10/25 10:16:20;;;;;;;;;;;15.20;99.90;;;;;;5022978;28;19928;-67
2022/10/25 10:18:46;;;;;;;;;;;15.20;99.90;;;;;;5022254;28;19925;-67
2022/10/25 10:21:14;;;;;;;;;;;15.30;99.90;;;;;;5038226;28;19921;-67
2022/10/25 10:23:40;;;;;;;;;;;15.30;99.90;;;;;;5044608;28;20023;-67
2022/10/25 10:26:10;;;;;;;;;;;15.50;99.90;;;;;;5025002;28;20387;-67
2022/10/25 10:28:36;;;;;;;;;;;15.60;99.90;;;;;;5027416;28;19925;-67
2022/10/25 10:31:04;;;;;;;;;;;15.60;99.90;;;;;;5024432;28;19937;-67
2022/10/25 10:33:31;;;;;;;;;;;15.60;99.90;;;;;;5026431;28;19937;-68
2022/10/25 10:36:16;;;;;;;;;;;15.70;99.90;;;;;;5026145;28;19925;-68
2022/10/25 10:38:41;;;;;;;;;;;15.70;99.90;;;;;;5027441;28;19921;-67
2022/10/25 10:41:24;;;;;;;;;;;15.60;99.90;;;;;;5025804;28;19921;-67
2022/10/25 10:43:50;;;;;;;;;;;15.50;99.90;;;;;;5035301;28;19925;-67
2022/10/25 10:46:18;;;;;;;;;;;15.50;99.90;;;;;;5030563;28;19929;-67
2022/10/25 10:48:45;;;;;;;;;;;15.50;99.90;;;;;;5048130;28;19992;-67
2022/10/25 10:51:16;;;;;;;;;;;15.60;99.90;;;;;;5035168;28;19952;-68
2022/10/25 10:53:42;;;;;;;;;;;15.70;99.90;;;;;;5031905;28;20263;-67
2022/10/25 10:56:07;;;;;;;;;;;15.70;99.90;;;;;;5034030;28;19928;-67
2022/10/25 10:58:37;;;;;;;;;;;15.80;99.90;;;;;;5027174;28;19928;-68
2022/10/25 11:01:10;;;;;;;;;;;15.80;99.90;;;;;;5031960;28;19957;-68
2022/10/25 11:03:41;;;;;;;;;;;16.00;99.90;;;;;;5031966;28;20350;-66
2022/10/25 11:06:12;;;;;;;;;;;16.20;99.90;;;;;;5040985;28;19925;-66
2022/10/25 11:08:37;;;;;;;;;;;16.30;99.90;;;;;;5027042;28;19936;-67
2022/10/25 11:11:12;;;;;;;;;;;16.30;99.90;;;;;;5038820;28;19921;-67
2022/10/25 11:13:38;;;;;;;;;;;16.40;99.90;;;;;;5031875;28;19948;-67
2022/10/25 11:16:17;;;;;;;;;;;16.50;99.90;;;;;;5047714;28;20366;-67
2022/10/25 11:18:43;;;;;;;;;;;16.60;99.90;;;;;;5030848;28;19929;-67
2022/10/25 11:21:08;;;;;;;;;;;16.80;99.90;;;;;;5034447;28;19927;-67
2022/10/25 11:23:42;;;;;;;;;;;16.80;99.90;;;;;;5032053;28;20020;-67
2022/10/25 11:26:12;;;;;;;;;;;16.90;99.90;;;;;;5044172;28;19972;-67
2022/10/25 11:28:38;;;;;;;;;;;;;;;;;;5032241;28;19929;-68
2022/10/25 11:31:04;;;;;;;;;;;;;;;;;;5045278;28;19948;-68
2022/10/25 11:33:30;;;;;;;;;;;;;;;;;;5029684;28;19944;-66
2022/10/25 11:35:58;;;;;;;;;;;;;;;;;;5028361;28;20432;-68
2022/10/25 11:38:41;;;;;;;;;;;17.10;99.90;;;;;;5032572;28;20000;-66
2022/10/25 11:41:29;;;;;;;;;;;17.60;99.90;;;;;;5028615;28;19925;-67
2022/10/25 11:44:13;;;;;;;;;;;17.50;99.90;;;;;;5032795;28;19925;-67
2022/10/25 11:46:47;;;;;;;;;;;17.50;99.90;;;;;;5029491;28;19979;-68
2022/10/25 11:49:28;;;;;;;;;;;17.50;99.90;;;;;;5031844;28;19921;-67
2022/10/25 11:52:04;;;;;;;;;;;17.20;99.90;;;;;;5024082;28;19927;-67
2022/10/25 11:54:50;;;;;;;;;;;17.10;99.90;;;;;;5021751;28;20246;-67
2022/10/25 11:57:21;;;;;;;;;;;17.10;99.90;;;;;;5023912;28;19933;-67
2022/10/25 12:00:00;;;;;;;;;;;17.00;99.90;;;;;;5031967;28;19922;-67
2022/10/25 12:02:45;;;;;;;;;;;17.00;99.90;;;;;;5024913;28;20027;-67
2022/10/25 12:05:21;;;;;;;;;;;16.80;99.90;;;;;;5026090;28;19932;-68
2022/10/25 12:07:53;;;;;;;;;;;16.90;99.90;;;;;;5024183;28;20477;-67
2022/10/25 12:10:32;;;;;;;;;;;17.00;99.90;;;;;;5025891;28;20068;-67
2022/10/25 12:13:19;;;;;;;;;;;17.00;99.90;;;;;;5031746;28;19940;-67
2022/10/25 12:15:49;;;;;;;;;;;17.00;99.90;;;;;;5033211;28;19929;-67
2022/10/25 12:18:16;;;;;;;;;;;17.10;99.90;;;;;;5031788;28;19935;-66
2022/10/25 12:20:44;;;;;;;;;;;17.10;99.90;;;;;;5031823;28;19921;-68
2022/10/25 12:23:12;;;;;;;;;;;;;;;;;;5030590;28;19925;-67
2022/10/25 12:25:45;;;;;;;;;;;17.30;99.90;;;;;;5032533;28;19975;-67
2022/10/25 12:28:15;;;;;;;;;;;17.30;99.90;;;;;;5029215;28;19968;-67
2022/10/25 12:30:41;;;;;;;;;;;17.00;99.90;;;;;;5044649;28;19925;-67
2022/10/25 12:33:14;;;;;;;;;;;17.00;99.90;;;;;;5038554;28;19925;-66
2022/10/25 12:35:43;;;;;;;;;;;16.90;99.90;;;;;;5026923;28;20266;-67
2022/10/25 12:38:16;;;;;;;;;;;16.80;99.90;;;;;;5029521;28;19928;-67
2022/10/25 12:40:44;;;;;;;;;;;16.90;99.90;;;;;;5032552;28;19925;-67
2022/10/25 12:43:15;;;;;;;;;;;16.90;99.90;;;;;;5042897;28;19929;-66
2022/10/25 12:45:59;;;;;;;;;;;16.80;99.90;;;;;;5031076;28;19928;-66
2022/10/25 12:48:37;;;;;;;;;;;16.80;99.90;;;;;;5026502;28;19929;-67
2022/10/25 12:51:14;;;;;;;;;;;16.80;99.90;;;;;;5031208;28;19959;-67
2022/10/25 12:53:56;;;;;;;;;;;16.70;99.90;;;;;;5030601;28;19937;-67
2022/10/25 12:56:28;;;;;;;;;;;16.60;99.90;;;;;;5040947;28;19925;-67
2022/10/25 12:59:02;;;;;;;;;;;16.50;99.90;;;;;;5027492;28;19979;-67
2022/10/25 13:01:46;;;;;;;;;;;16.60;99.90;;;;;;5023697;28;19952;-66
2022/10/25 13:04:21;;;;;;;;;;;16.70;99.90;;;;;;5031250;28;19922;-67
2022/10/25 13:06:47;;;;;;;;;;;16.70;99.90;;;;;;5028262;28;19929;-67
2022/10/25 13:09:13;;;;;;;;;;;16.80;99.90;;;;;;5039270;28;19967;-67
2022/10/25 13:11:46;;;;;;;;;;;16.70;99.90;;;;;;5041509;28;19939;-66
2022/10/25 13:14:15;;;;;;;;;;;16.70;99.90;;;;;;5043157;28;20018;-67
2022/10/25 13:16:40;;;;;;;;;;;16.70;99.90;;;;;;5029124;28;19925;-67
2022/10/25 13:19:22;;;;;;;;;;;16.70;99.90;;;;;;5027511;28;19921;-66
2022/10/25 13:21:51;;;;;;;;;;;16.80;99.90;;;;;;5021243;28;19929;-67
2022/10/25 13:24:34;;;;;;;;;;;16.90;99.90;;;;;;5028720;28;20002;-67
2022/10/25 13:27:12;;;;;;;;;;;17.00;99.90;;;;;;5028337;28;19936;-67
2022/10/25 13:29:57;;;;;;;;;;;17.00;99.90;;;;;;5030173;28;20372;-66
2022/10/25 13:32:22;;;;;;;;;;;16.90;99.90;;;;;;5026048;28;19932;-66
2022/10/25 13:34:48;;;;;;;;;;;16.80;99.90;;;;;;5013317;28;20298;-67
2022/10/25 13:37:32;;;;;;;;;;;16.70;99.90;;;;;;5025461;28;20015;-66
2022/10/25 13:39:58;;;;;;;;;;;16.60;99.90;;;;;;5030908;28;19925;-67
2022/10/25 13:42:30;;;;;;;;;;;16.50;99.90;;;;;;5028678;28;19975;-67
2022/10/25 13:44:55;;;;;;;;;;;16.50;99.90;;;;;;5029576;28;19929;-66
2022/10/25 13:47:40;;;;;;;;;;;16.60;99.90;;;;;;5041142;28;20012;-67
2022/10/25 13:50:25;;;;;;;;;;;16.60;99.90;;;;;;5029531;28;20019;-66
2022/10/25 13:52:57;;;;;;;;;;;16.60;99.90;;;;;;5031556;28;20248;-67
2022/10/25 13:55:23;;;;;;;;;;;16.70;99.90;;;;;;5026195;28;19936;-66
2022/10/25 13:57:55;;;;;;;;;;;16.70;99.90;;;;;;5030718;28;19925;-67
2022/10/25 14:00:30;;;;;;;;;;;16.60;99.90;;;;;;5029937;28;19921;-66
2022/10/25 14:03:03;;;;;;;;;;;16.80;99.90;;;;;;5024383;28;20004;-67
2022/10/25 14:06:01;;;;;;;;;;;16.80;99.90;;;;;;5025786;28;19932;-67
2022/10/25 14:08:42;;;;;;;;;;;16.80;99.90;;;;;;4989735;28;20386;-67
2022/10/25 14:11:11;;;;;;;;;;;16.80;99.90;;;;;;5028873;28;19929;-66
2022/10/25 14:13:46;;;;;;;;;;;16.70;99.90;;;;;;5041573;28;20381;-67
2022/10/25 14:16:27;;;;;;;;;;;16.60;99.90;;;;;;5031365;28;19993;-67
2022/10/25 14:18:54;;;;;;;;;;;16.50;99.90;;;;;;5030119;28;19991;-66
2022/10/25 14:21:22;;;;;;;;;;;16.50;99.90;;;;;;5024274;28;19928;-67
2022/10/25 14:23:48;;;;;;;;;;;16.30;99.90;;;;;;5040724;28;19999;-66
2022/10/25 14:26:15;;;;;;;;;;;16.30;99.90;;;;;;5030073;28;19929;-67
2022/10/25 14:28:40;;;;;;;;;;;16.30;99.90;;;;;;5025621;28;19952;-66